Time,TemperatureF,DewpointF,PressureIn,WindDirection,WindDirectionDegrees,WindSpeedMPH,WindSpeedGustMPH,Humidity,HourlyPrecipIn,Conditions,Clouds,dailyrainin,SolarRadiationWatts/m^2,SoftwareType,DateUTC
2013-07-06 00:03:00,74.5,61.9,29.85,SSE,158,3.5,3.5,65,0.00,CLR,,0.00,0.0,WeatherDisplay:10.37,2013-07-06 05:03:00,
2013-07-06 00:08:00,74.5,61.9,29.85,South,180,3.5,3.5,65,0.00,CLR,,0.00,0.0,WeatherDisplay:10.37,2013-07-06 05:08:00,
2013-07-06 00:13:00,74.5,61.9,29.82,South,180,2.3,2.3,65,0.00,CLR,,0.00,0.0,WeatherDisplay:10.37,2013-07-06 05:13:00,
2013-07-06 00:19:00,74.5,61.9,29.82,South,180,4.6,4.6,65,0.00,CLR,,0.00,0.0,WeatherDisplay:10.37,2013-07-06 05:19:00,
2013-07-06 00:24:00,74.7,62.1,29.82,South,180,2.3,2.3,65,0.00,CLR,,0.00,0.0,WeatherDisplay:10.37,2013-07-06 05:24:00,
2013-07-06 00:29:00,74.7,62.1,29.85,SSW,202,3.5,3.5,65,0.00,CLR,,0.00,0.0,WeatherDisplay:10.37,2013-07-06 05:29:00,
2013-07-06 00:34:00,74.8,62.3,29.85,SSE,158,2.3,2.3,65,0.00,CLR,,0.00,0.0,WeatherDisplay:10.37,2013-07-06 05:34:00,
2013-07-06 00:39:00,74.8,62.3,29.85,SW,225,2.9,2.9,65,0.00,CLR,,0.00,0.0,WeatherDisplay:10.37,2013-07-06 05:39:00,
2013-07-06 00:45:00,74.8,62.3,29.82,South,180,2.3,2.3,65,0.00,CLR,,0.00,0.0,WeatherDisplay:10.37,2013-07-06 05:45:00,
2013-07-06 00:50:00,74.8,61.8,29.82,South,180,4.9,4.9,64,0.00,CLR,,0.00,0.0,WeatherDisplay:10.37,2013-07-06 05:50:00,
2013-07-06 00:55:00,74.8,61.8,29.82,South,180,3.5,3.5,64,0.00,CLR,,0.00,0.0,WeatherDisplay:10.37,2013-07-06 05:55:00,
2013-07-06 01:00:00,74.7,61.7,29.85,WSW,248,3.5,3.5,64,0.00,CLR,,0.00,0.0,WeatherDisplay:10.37,2013-07-06 06:00:00,
2013-07-06 01:06:00,74.7,61.7,29.85,SSW,202,2.3,2.3,64,0.00,CLR,,0.00,0.0,WeatherDisplay:10.37,2013-07-06 06:06:00,
2013-07-06 01:11:00,74.5,61.9,29.85,SSW,202,4.6,4.6,65,0.00,CLR,,0.00,0.0,WeatherDisplay:10.37,2013-07-06 06:11:00,
2013-07-06 01:16:00,74.5,61.9,29.85,SSE,158,2.3,2.3,65,0.00,CLR,,0.00,0.0,WeatherDisplay:10.37,2013-07-06 06:16:00,
2013-07-06 01:21:00,74.3,61.8,29.85,SSW,202,2.3,2.3,65,0.00,CLR,,0.00,0.0,WeatherDisplay:10.37,2013-07-06 06:21:00,
2013-07-06 01:26:00,74.1,61.6,29.85,SE,135,2.3,2.3,65,0.00,CLR,,0.00,0.0,WeatherDisplay:10.37,2013-07-06 06:26:00,
2013-07-06 01:31:00,74.1,61.6,29.85,SSW,202,1.1,1.4,65,0.00,CLR,,0.00,0.0,WeatherDisplay:10.37,2013-07-06 06:31:00,
2013-07-06 01:37:00,73.9,61.4,29.85,SSE,158,2.9,2.9,65,0.00,CLR,,0.00,0.0,WeatherDisplay:10.37,2013-07-06 06:37:00,
2013-07-06 01:42:00,73.8,61.7,29.85,SSE,158,2.3,2.3,66,0.00,CLR,,0.00,0.0,WeatherDisplay:10.37,2013-07-06 06:42:00,
2013-07-06 01:47:00,73.6,61.5,29.85,South,180,2.3,2.3,66,0.00,CLR,,0.00,0.0,WeatherDisplay:10.37,2013-07-06 06:47:00,
2013-07-06 01:52:00,73.6,61.5,29.85,South,180,1.1,1.4,66,0.00,CLR,,0.00,0.0,WeatherDisplay:10.37,2013-07-06 06:52:00,
2013-07-06 01:58:00,73.4,61.3,29.85,South,180,1.1,1.1,66,0.00,CLR,,0.00,0.0,WeatherDisplay:10.37,2013-07-06 06:58:00,
2013-07-06 02:03:00,73.2,61.6,29.85,South,180,1.1,1.1,67,0.00,CLR,,0.00,0.0,WeatherDisplay:10.37,2013-07-06 07:03:00,
2013-07-06 02:08:00,73.0,61.4,29.85,South,180,1.1,1.1,67,0.00,CLR,,0.00,0.0,WeatherDisplay:10.37,2013-07-06 07:08:00,
2013-07-06 02:13:00,72.9,61.3,29.85,SSE,158,2.3,2.3,67,0.00,CLR,,0.00,0.0,WeatherDisplay:10.37,2013-07-06 07:13:00,
2013-07-06 02:18:00,72.7,61.1,29.85,South,180,1.1,1.4,67,0.00,CLR,,0.00,0.0,WeatherDisplay:10.37,2013-07-06 07:18:00,
2013-07-06 02:24:00,72.5,61.3,29.85,South,180,1.1,1.1,68,0.00,CLR,,0.00,0.0,WeatherDisplay:10.37,2013-07-06 07:24:00,
2013-07-06 02:29:00,72.5,61.3,29.88,South,180,1.1,1.1,68,0.00,CLR,,0.00,0.0,WeatherDisplay:10.37,2013-07-06 07:29:00,
2013-07-06 02:34:00,72.3,61.2,29.88,SSW,202,1.1,1.1,68,0.00,CLR,,0.00,0.0,WeatherDisplay:10.37,2013-07-06 07:34:00,
2013-07-06 02:39:00,72.1,61.4,29.88,SSE,158,2.0,2.0,69,0.00,CLR,,0.00,0.0,WeatherDisplay:10.37,2013-07-06 07:39:00,
2013-07-06 02:44:00,72.0,61.2,29.88,SSE,158,2.3,2.3,69,0.00,CLR,,0.00,0.0,WeatherDisplay:10.37,2013-07-06 07:44:00,
2013-07-06 02:49:00,71.8,61.1,29.88,SSE,158,1.1,1.1,69,0.00,CLR,,0.00,0.0,WeatherDisplay:10.37,2013-07-06 07:49:00,
2013-07-06 02:55:00,71.8,61.5,29.88,SSE,158,2.3,2.3,70,0.00,CLR,,0.00,0.0,WeatherDisplay:10.37,2013-07-06 07:55:00,
2013-07-06 03:00:00,71.6,61.3,29.85,WSW,248,1.6,0.0,70,0.00,CLR,,0.00,0.0,WeatherDisplay:10.37,2013-07-06 08:00:00,
2013-07-06 03:05:00,71.4,61.1,29.85,SSE,158,1.6,1.6,70,0.00,CLR,,0.00,0.0,WeatherDisplay:10.37,2013-07-06 08:05:00,
2013-07-06 03:10:00,71.2,61.4,29.85,South,180,1.1,0.0,71,0.00,CLR,,0.00,0.0,WeatherDisplay:10.37,2013-07-06 08:10:00,
2013-07-06 03:15:00,71.1,61.2,29.88,SSE,158,1.6,1.6,71,0.00,CLR,,0.00,0.0,WeatherDisplay:10.37,2013-07-06 08:15:00,
2013-07-06 03:20:00,71.1,61.2,29.88,SSE,158,1.1,0.0,71,0.00,CLR,,0.00,0.0,WeatherDisplay:10.37,2013-07-06 08:20:00,
2013-07-06 03:26:00,70.9,61.4,29.88,SSE,158,1.1,1.1,72,0.00,CLR,,0.00,0.0,WeatherDisplay:10.37,2013-07-06 08:26:00,
2013-07-06 03:31:00,70.7,61.2,29.88,South,180,1.1,0.0,72,0.00,CLR,,0.00,0.0,WeatherDisplay:10.37,2013-07-06 08:31:00,
2013-07-06 03:36:00,70.5,61.1,29.88,SSE,158,1.1,0.0,72,0.00,CLR,,0.00,0.0,WeatherDisplay:10.37,2013-07-06 08:36:00,
2013-07-06 03:41:00,70.5,61.1,29.88,SSE,158,1.4,1.4,72,0.00,CLR,,0.00,0.0,WeatherDisplay:10.37,2013-07-06 08:41:00,
2013-07-06 03:46:00,70.5,61.4,29.88,SSE,158,2.3,2.3,73,0.00,CLR,,0.00,0.0,WeatherDisplay:10.37,2013-07-06 08:46:00,
2013-07-06 03:51:00,70.3,61.3,29.88,SSE,158,1.1,1.1,73,0.00,CLR,,0.00,0.0,WeatherDisplay:10.37,2013-07-06 08:51:00,
2013-07-06 03:56:00,70.2,61.1,29.88,SSE,158,1.1,0.0,73,0.00,CLR,,0.00,0.0,WeatherDisplay:10.37,2013-07-06 08:56:00,
2013-07-06 04:02:00,70.2,61.5,29.85,SSE,158,1.4,1.4,74,0.00,CLR,,0.00,0.0,WeatherDisplay:10.37,2013-07-06 09:02:00,
2013-07-06 04:07:00,70.0,61.3,29.85,SSE,158,2.3,0.0,74,0.00,CLR,,0.00,0.0,WeatherDisplay:10.37,2013-07-06 09:07:00,
2013-07-06 04:12:00,69.8,61.1,29.85,SSE,158,1.1,1.4,74,0.00,CLR,,0.00,0.0,WeatherDisplay:10.37,2013-07-06 09:12:00,
2013-07-06 04:17:00,69.6,61.3,29.85,SSE,158,2.0,2.0,75,0.00,CLR,,0.00,0.0,WeatherDisplay:10.37,2013-07-06 09:17:00,
2013-07-06 04:23:00,69.6,61.7,29.85,SSE,158,2.4,2.4,76,0.00,CLR,,0.00,0.0,WeatherDisplay:10.37,2013-07-06 09:23:00,
2013-07-06 04:28:00,69.3,61.4,29.85,SSE,158,2.4,2.4,76,0.00,CLR,,0.00,0.0,WeatherDisplay:10.37,2013-07-06 09:28:00,
2013-07-06 04:33:00,69.1,61.2,29.85,SSE,158,2.3,0.0,76,0.00,CLR,,0.00,0.0,WeatherDisplay:10.37,2013-07-06 09:33:00,
2013-07-06 04:38:00,69.1,61.6,29.85,SSE,158,2.4,2.4,77,0.00,CLR,,0.00,0.0,WeatherDisplay:10.37,2013-07-06 09:38:00,
2013-07-06 04:43:00,68.9,61.4,29.85,SE,135,2.3,2.3,77,0.00,CLR,,0.00,0.0,WeatherDisplay:10.37,2013-07-06 09:43:00,
2013-07-06 04:48:00,68.7,61.2,29.85,SE,135,1.1,1.1,77,0.00,CLR,,0.00,0.0,WeatherDisplay:10.37,2013-07-06 09:48:00,
2013-07-06 04:54:00,68.5,61.4,29.85,SE,135,1.1,1.1,78,0.00,CLR,,0.00,0.0,WeatherDisplay:10.37,2013-07-06 09:54:00,
2013-07-06 04:59:00,68.5,61.4,29.85,SE,135,2.4,2.4,78,0.00,CLR,,0.00,0.0,WeatherDisplay:10.37,2013-07-06 09:59:00,
2013-07-06 05:04:00,68.4,61.2,29.85,SE,135,2.3,2.3,78,0.00,CLR,,0.00,0.0,WeatherDisplay:10.37,2013-07-06 10:04:00,
2013-07-06 05:09:00,68.4,61.6,29.85,SE,135,2.3,2.3,79,0.00,CLR,,0.00,0.0,WeatherDisplay:10.37,2013-07-06 10:09:00,
2013-07-06 05:14:00,68.2,61.4,29.85,SE,135,2.3,2.3,79,0.00,CLR,,0.00,0.0,WeatherDisplay:10.37,2013-07-06 10:14:00,
2013-07-06 05:19:00,68.2,61.4,29.85,SE,135,1.6,1.6,79,0.00,CLR,,0.00,0.0,WeatherDisplay:10.37,2013-07-06 10:19:00,
2013-07-06 05:24:00,68.2,61.4,29.85,SE,135,2.3,2.3,79,0.00,CLR,,0.00,0.0,WeatherDisplay:10.37,2013-07-06 10:24:00,
2013-07-06 05:30:00,68.0,61.6,29.85,SE,135,1.4,1.4,80,0.00,CLR,,0.00,0.0,WeatherDisplay:10.37,2013-07-06 10:30:00,
2013-07-06 05:35:00,68.0,61.6,29.85,SE,135,1.1,0.0,80,0.00,CLR,,0.00,0.0,WeatherDisplay:10.37,2013-07-06 10:35:00,
2013-07-06 05:40:00,67.8,61.4,29.85,SE,135,1.1,1.1,80,0.00,CLR,,0.00,0.0,WeatherDisplay:10.37,2013-07-06 10:40:00,
2013-07-06 05:45:00,67.8,61.8,29.85,SE,135,2.3,2.3,81,0.00,CLR,,0.00,0.0,WeatherDisplay:10.37,2013-07-06 10:45:00,
2013-07-06 05:50:00,67.8,61.8,29.85,SE,135,1.4,1.4,81,0.00,CLR,,0.00,0.0,WeatherDisplay:10.37,2013-07-06 10:50:00,
2013-07-06 05:55:00,67.6,61.6,29.85,SE,135,1.1,0.0,81,0.00,CLR,,0.00,0.0,WeatherDisplay:10.37,2013-07-06 10:55:00,
2013-07-06 06:01:00,67.6,61.6,29.85,SE,135,2.3,2.3,81,0.00,CLR,,0.00,0.0,WeatherDisplay:10.37,2013-07-06 11:01:00,
2013-07-06 06:06:00,67.8,62.1,29.85,SE,135,2.3,2.3,82,0.00,CLR,,0.00,0.0,WeatherDisplay:10.37,2013-07-06 11:06:00,
2013-07-06 06:11:00,67.8,62.1,29.85,SE,135,2.3,2.3,82,0.00,CLR,,0.00,0.0,WeatherDisplay:10.37,2013-07-06 11:11:00,
2013-07-06 06:16:00,67.8,62.1,29.85,SE,135,1.1,1.1,82,0.00,CLR,,0.00,0.0,WeatherDisplay:10.37,2013-07-06 11:16:00,
2013-07-06 06:21:00,68.0,62.3,29.85,SE,135,1.1,0.0,82,0.00,CLR,,0.00,0.0,WeatherDisplay:10.37,2013-07-06 11:21:00,
2013-07-06 06:26:00,68.0,62.3,29.85,SE,135,2.3,2.3,82,0.00,CLR,,0.00,0.0,WeatherDisplay:10.37,2013-07-06 11:26:00,
2013-07-06 06:31:00,68.2,62.5,29.85,SSE,158,2.3,2.3,82,0.00,CLR,,0.00,0.0,WeatherDisplay:10.37,2013-07-06 11:31:00,
2013-07-06 06:36:00,68.4,62.6,29.85,SSE,158,2.3,2.3,82,0.00,CLR,,0.00,0.0,WeatherDisplay:10.37,2013-07-06 11:36:00,
2013-07-06 06:42:00,68.5,62.8,29.85,SE,135,3.5,3.5,82,0.00,CLR,,0.00,0.0,WeatherDisplay:10.37,2013-07-06 11:42:00,
2013-07-06 06:47:00,68.9,63.2,29.85,SSE,158,1.4,0.0,82,0.00,CLR,,0.00,0.0,WeatherDisplay:10.37,2013-07-06 11:47:00,
2013-07-06 06:52:00,69.3,63.5,29.85,SSE,158,2.3,2.3,82,0.00,CLR,,0.00,0.0,WeatherDisplay:10.37,2013-07-06 11:52:00,
2013-07-06 06:57:00,69.6,63.9,29.85,SSE,158,1.6,0.0,82,0.00,CLR,,0.00,0.0,WeatherDisplay:10.37,2013-07-06 11:57:00,
2013-07-06 07:02:00,69.8,63.7,29.88,SSE,158,1.1,0.0,81,0.00,CLR,,0.00,0.0,WeatherDisplay:10.37,2013-07-06 12:02:00,
2013-07-06 07:07:00,70.0,63.9,29.88,SSE,158,2.3,2.3,81,0.00,CLR,,0.00,0.0,WeatherDisplay:10.37,2013-07-06 12:07:00,
2013-07-06 07:12:00,70.0,63.9,29.88,SSE,158,2.3,2.3,81,0.00,CLR,,0.00,0.0,WeatherDisplay:10.37,2013-07-06 12:12:00,
2013-07-06 07:17:00,70.2,64.1,29.88,SSE,158,1.1,1.1,81,0.00,CLR,,0.00,0.0,WeatherDisplay:10.37,2013-07-06 12:17:00,
2013-07-06 07:23:00,70.3,64.2,29.88,SSE,158,2.3,2.3,81,0.00,CLR,,0.00,0.0,WeatherDisplay:10.37,2013-07-06 12:23:00,
2013-07-06 07:28:00,70.5,64.0,29.88,SE,135,1.6,1.6,80,0.00,CLR,,0.00,0.0,WeatherDisplay:10.37,2013-07-06 12:28:00,
2013-07-06 07:33:00,70.7,64.2,29.88,SSE,158,2.3,2.3,80,0.00,CLR,,0.00,0.0,WeatherDisplay:10.37,2013-07-06 12:33:00,
2013-07-06 07:38:00,71.1,64.6,29.88,South,180,2.0,2.0,80,0.00,CLR,,0.00,0.0,WeatherDisplay:10.37,2013-07-06 12:38:00,
2013-07-06 07:43:00,71.2,64.8,29.88,SSE,158,2.3,2.3,80,0.00,CLR,,0.00,0.0,WeatherDisplay:10.37,2013-07-06 12:43:00,
2013-07-06 07:49:00,71.4,64.9,29.88,South,180,1.4,1.4,80,0.00,CLR,,0.00,0.0,WeatherDisplay:10.37,2013-07-06 12:49:00,
2013-07-06 07:54:00,71.6,64.7,29.88,SSW,202,1.6,1.6,79,0.00,CLR,,0.00,0.0,WeatherDisplay:10.37,2013-07-06 12:54:00,
2013-07-06 07:59:00,71.8,64.9,29.88,SSW,202,2.4,2.4,79,0.00,CLR,,0.00,0.0,WeatherDisplay:10.37,2013-07-06 12:59:00,
2013-07-06 08:04:00,72.1,64.9,29.88,SW,225,3.5,3.5,78,0.00,CLR,,0.00,0.0,WeatherDisplay:10.37,2013-07-06 13:04:00,
2013-07-06 08:09:00,72.3,65.1,29.88,South,180,2.3,2.3,78,0.00,CLR,,0.00,0.0,WeatherDisplay:10.37,2013-07-06 13:09:00,
2013-07-06 08:15:00,72.5,65.2,29.88,South,180,2.3,2.3,78,0.00,CLR,,0.00,0.0,WeatherDisplay:10.37,2013-07-06 13:15:00,
2013-07-06 08:20:00,72.7,65.4,29.88,South,180,1.1,1.4,78,0.00,CLR,,0.00,0.0,WeatherDisplay:10.37,2013-07-06 13:20:00,
2013-07-06 08:25:00,73.0,65.4,29.88,SSW,202,3.5,3.5,77,0.00,CLR,,0.00,0.0,WeatherDisplay:10.37,2013-07-06 13:25:00,
2013-07-06 08:30:00,73.2,65.6,29.88,SSE,158,2.3,2.3,77,0.00,CLR,,0.00,0.0,WeatherDisplay:10.37,2013-07-06 13:30:00,
2013-07-06 08:36:00,73.6,65.5,29.88,SSW,202,4.6,4.6,76,0.00,CLR,,0.00,0.0,WeatherDisplay:10.37,2013-07-06 13:36:00,
2013-07-06 08:41:00,73.9,65.9,29.88,SW,225,4.0,4.0,76,0.00,CLR,,0.00,0.0,WeatherDisplay:10.37,2013-07-06 13:41:00,
2013-07-06 08:46:00,74.3,65.9,29.88,South,180,4.6,4.6,75,0.00,CLR,,0.00,0.0,WeatherDisplay:10.37,2013-07-06 13:46:00,
2013-07-06 08:51:00,74.7,65.8,29.88,SSW,202,4.6,4.6,74,0.00,CLR,,0.00,0.0,WeatherDisplay:10.37,2013-07-06 13:51:00,
2013-07-06 08:57:00,75.2,65.9,29.88,WNW,292,2.3,2.3,73,0.00,CLR,,0.00,0.0,WeatherDisplay:10.37,2013-07-06 13:57:00,
2013-07-06 09:02:00,75.6,65.9,29.85,SSW,202,2.6,2.6,72,0.00,CLR,,0.00,0.0,WeatherDisplay:10.37,2013-07-06 14:02:00,
2013-07-06 09:07:00,75.7,65.7,29.85,SSW,202,4.6,4.6,71,0.00,CLR,,0.00,0.0,WeatherDisplay:10.37,2013-07-06 14:07:00,
2013-07-06 09:12:00,76.1,66.0,29.85,SSW,202,3.5,3.5,71,0.00,CLR,,0.00,0.0,WeatherDisplay:10.37,2013-07-06 14:12:00,
2013-07-06 09:17:00,76.5,65.9,29.88,South,180,4.6,4.6,70,0.00,CLR,,0.00,0.0,WeatherDisplay:10.37,2013-07-06 14:17:00,
2013-07-06 09:22:00,77.0,66.0,29.88,WSW,248,4.6,4.6,69,0.00,CLR,,0.00,0.0,WeatherDisplay:10.37,2013-07-06 14:22:00,
2013-07-06 09:27:00,77.5,66.1,29.88,SSE,158,4.6,5.6,68,0.00,CLR,,0.00,0.0,WeatherDisplay:10.37,2013-07-06 14:27:00,
2013-07-06 09:33:00,78.1,66.7,29.88,West,270,6.9,6.9,68,0.00,CLR,,0.00,0.0,WeatherDisplay:10.37,2013-07-06 14:33:00,
2013-07-06 09:38:00,78.6,66.7,29.88,SSW,202,8.1,8.1,67,0.00,CLR,,0.00,100.0,WeatherDisplay:10.37,2013-07-06 14:38:00,
2013-07-06 09:43:00,79.0,66.6,29.85,SW,225,8.1,8.1,66,0.00,CLR,,0.00,100.0,WeatherDisplay:10.37,2013-07-06 14:43:00,
2013-07-06 09:48:00,79.2,66.4,29.85,SSW,202,4.6,4.6,65,0.00,CLR,,0.00,100.0,WeatherDisplay:10.37,2013-07-06 14:48:00,
2013-07-06 09:53:00,79.7,66.9,29.85,SSW,202,5.8,5.8,65,0.00,CLR,,0.00,100.0,WeatherDisplay:10.37,2013-07-06 14:53:00,
2013-07-06 09:59:00,79.9,66.2,29.85,South,180,4.6,4.6,63,0.00,CLR,,0.00,200.0,WeatherDisplay:10.37,2013-07-06 14:59:00,
2013-07-06 10:04:00,80.4,66.2,29.85,East,90,5.8,5.8,62,0.00,CLR,,0.00,100.0,WeatherDisplay:10.37,2013-07-06 15:04:00,
2013-07-06 10:09:00,80.8,66.5,29.85,South,180,4.6,4.6,62,0.00,CLR,,0.00,200.0,WeatherDisplay:10.37,2013-07-06 15:09:00,
2013-07-06 10:14:00,81.3,67.5,29.85,SSW,202,2.4,2.4,63,0.00,CLR,,0.00,200.0,WeatherDisplay:10.37,2013-07-06 15:14:00,
2013-07-06 10:19:00,81.5,67.2,29.85,SE,135,3.8,3.8,62,0.00,CLR,,0.00,100.0,WeatherDisplay:10.37,2013-07-06 15:19:00,
2013-07-06 10:25:00,81.5,66.8,29.85,SW,225,4.6,4.6,61,0.00,CLR,,0.00,200.0,WeatherDisplay:10.37,2013-07-06 15:25:00,
2013-07-06 10:30:00,81.9,67.1,29.85,SSE,158,6.9,6.9,61,0.00,CLR,,0.00,200.0,WeatherDisplay:10.37,2013-07-06 15:30:00,
2013-07-06 10:35:00,82.4,67.6,29.85,SSW,202,2.9,2.9,61,0.00,CLR,,0.00,200.0,WeatherDisplay:10.37,2013-07-06 15:35:00,
2013-07-06 10:40:00,82.9,67.6,29.85,SSW,202,4.6,4.6,60,0.00,CLR,,0.00,300.0,WeatherDisplay:10.37,2013-07-06 15:40:00,
2013-07-06 10:45:00,83.1,66.3,29.85,South,180,4.6,4.6,57,0.00,CLR,,0.00,300.0,WeatherDisplay:10.37,2013-07-06 15:45:00,
2013-07-06 10:51:00,83.3,65.4,29.85,SSW,202,6.9,8.1,55,0.00,CLR,,0.00,300.0,WeatherDisplay:10.37,2013-07-06 15:51:00,
2013-07-06 10:56:00,84.0,67.1,29.85,SW,225,3.6,3.6,57,0.00,CLR,,0.00,300.0,WeatherDisplay:10.37,2013-07-06 15:56:00,
2013-07-06 11:01:00,84.7,66.8,29.85,SW,225,8.1,8.1,55,0.00,CLR,,0.00,300.0,WeatherDisplay:10.37,2013-07-06 16:01:00,
2013-07-06 11:06:00,85.1,67.1,29.85,SW,225,8.7,8.7,55,0.00,CLR,,0.00,300.0,WeatherDisplay:10.37,2013-07-06 16:06:00,
2013-07-06 11:11:00,85.5,66.9,29.85,SSW,202,9.2,9.2,54,0.00,CLR,,0.00,300.0,WeatherDisplay:10.37,2013-07-06 16:11:00,
2013-07-06 11:17:00,85.8,66.7,29.85,SW,225,7.8,7.8,53,0.00,CLR,,0.00,300.0,WeatherDisplay:10.37,2013-07-06 16:17:00,
2013-07-06 11:22:00,86.2,66.5,29.85,WSW,248,4.7,4.7,52,0.00,CLR,,0.00,400.0,WeatherDisplay:10.37,2013-07-06 16:22:00,
2013-07-06 11:27:00,86.5,66.3,29.85,SW,225,8.1,8.1,51,0.00,CLR,,0.00,400.0,WeatherDisplay:10.37,2013-07-06 16:27:00,
2013-07-06 11:32:00,86.7,65.3,29.85,SSW,202,8.5,8.5,49,0.00,CLR,,0.00,400.0,WeatherDisplay:10.37,2013-07-06 16:32:00,
2013-07-06 11:37:00,87.1,66.8,29.85,SE,135,4.6,4.6,51,0.00,CLR,,0.00,400.0,WeatherDisplay:10.37,2013-07-06 16:37:00,
2013-07-06 11:43:00,87.4,67.1,29.85,SW,225,3.8,3.8,51,0.00,CLR,,0.00,400.0,WeatherDisplay:10.37,2013-07-06 16:43:00,
2013-07-06 11:48:00,88.2,67.2,29.85,SSW,202,2.9,2.9,50,0.00,CLR,,0.00,400.0,WeatherDisplay:10.37,2013-07-06 16:48:00,
2013-07-06 11:54:00,88.3,66.2,29.85,SSW,202,6.9,6.9,48,0.00,CLR,,0.00,400.0,WeatherDisplay:10.37,2013-07-06 16:54:00,
2013-07-06 11:59:00,88.3,66.2,29.85,South,180,5.8,5.8,48,0.00,CLR,,0.00,400.0,WeatherDisplay:10.37,2013-07-06 16:59:00,
2013-07-06 12:05:00,88.7,66.5,29.85,SSE,158,4.6,4.6,48,0.00,CLR,,0.00,400.0,WeatherDisplay:10.37,2013-07-06 17:05:00,
2013-07-06 12:10:00,88.9,66.0,29.85,SSW,202,7.6,7.6,47,0.00,CLR,,0.00,500.0,WeatherDisplay:10.37,2013-07-06 17:10:00,
2013-07-06 12:16:00,88.7,65.3,29.85,SW,225,6.9,6.9,46,0.00,CLR,,0.00,500.0,WeatherDisplay:10.37,2013-07-06 17:16:00,
2013-07-06 12:21:00,88.9,65.4,29.85,WSW,248,9.2,9.2,46,0.00,CLR,,0.00,500.0,WeatherDisplay:10.37,2013-07-06 17:21:00,
2013-07-06 12:27:00,89.2,66.4,29.85,SSW,202,6.4,6.4,47,0.00,CLR,,0.00,500.0,WeatherDisplay:10.37,2013-07-06 17:27:00,
2013-07-06 12:32:00,89.6,66.1,29.85,SSE,158,3.5,3.5,46,0.00,CLR,,0.00,500.0,WeatherDisplay:10.37,2013-07-06 17:32:00,
2013-07-06 12:38:00,89.6,65.4,29.85,South,180,3.5,3.5,45,0.00,CLR,,0.00,500.0,WeatherDisplay:10.37,2013-07-06 17:38:00,
2013-07-06 12:43:00,90.0,66.4,29.82,SSW,202,4.6,4.6,46,0.00,CLR,,0.00,500.0,WeatherDisplay:10.37,2013-07-06 17:43:00,
2013-07-06 12:48:00,90.0,66.4,29.82,SSW,202,3.5,4.0,46,0.00,CLR,,0.00,500.0,WeatherDisplay:10.37,2013-07-06 17:48:00,
2013-07-06 12:53:00,90.3,66.1,29.82,WSW,248,5.8,5.8,45,0.00,CLR,,0.00,0.0,WeatherDisplay:10.37,2013-07-06 17:53:00,
2013-07-06 12:59:00,90.7,67.7,29.85,SSE,158,3.5,3.5,47,0.00,CLR,,0.00,500.0,WeatherDisplay:10.37,2013-07-06 17:59:00,
2013-07-06 13:04:00,91.0,67.4,29.85,SE,135,3.5,3.5,46,0.00,CLR,,0.00,400.0,WeatherDisplay:10.37,2013-07-06 18:04:00,
2013-07-06 13:09:00,90.5,66.9,29.85,SSW,202,3.5,3.5,46,0.00,CLR,,0.00,200.0,WeatherDisplay:10.37,2013-07-06 18:09:00,
2013-07-06 13:14:00,90.5,66.9,29.85,South,180,2.4,2.4,46,0.00,CLR,,0.00,500.0,WeatherDisplay:10.37,2013-07-06 18:14:00,
2013-07-06 13:19:00,90.5,66.3,29.85,SSE,158,7.1,7.1,45,0.00,CLR,,0.00,500.0,WeatherDisplay:10.37,2013-07-06 18:19:00,
2013-07-06 13:25:00,90.9,67.2,29.85,South,180,5.8,5.8,46,0.00,CLR,,0.00,500.0,WeatherDisplay:10.37,2013-07-06 18:25:00,
2013-07-06 13:31:00,90.7,66.4,29.85,WSW,248,8.1,8.1,45,0.00,CLR,,0.00,500.0,WeatherDisplay:10.37,2013-07-06 18:31:00,
2013-07-06 13:37:00,90.7,66.4,29.85,South,180,4.6,4.6,45,0.00,CLR,,0.00,300.0,WeatherDisplay:10.37,2013-07-06 18:37:00,
2013-07-06 13:42:00,90.1,66.6,29.85,South,180,4.6,4.6,46,0.00,CLR,,0.00,300.0,WeatherDisplay:10.37,2013-07-06 18:42:00,
2013-07-06 13:49:00,89.8,66.2,29.85,South,180,3.5,3.5,46,0.00,CLR,,0.00,200.0,WeatherDisplay:10.37,2013-07-06 18:49:00,
2013-07-06 13:54:00,89.4,65.9,29.85,SW,225,5.8,5.8,46,0.00,CLR,,0.00,200.0,WeatherDisplay:10.37,2013-07-06 18:54:00,
2013-07-06 14:00:00,89.4,66.5,29.85,SSW,202,5.8,5.8,47,0.00,CLR,,0.00,200.0,WeatherDisplay:10.37,2013-07-06 19:00:00,
2013-07-06 14:05:00,89.4,65.9,29.85,SSW,202,9.2,9.2,46,0.00,CLR,,0.00,100.0,WeatherDisplay:10.37,2013-07-06 19:05:00,
2013-07-06 14:11:00,89.1,65.0,29.85,SSE,158,5.9,5.9,45,0.00,CLR,,0.00,100.0,WeatherDisplay:10.37,2013-07-06 19:11:00,
2013-07-06 14:16:00,89.1,66.2,29.85,SSE,158,3.5,3.5,47,0.00,CLR,,0.00,100.0,WeatherDisplay:10.37,2013-07-06 19:16:00,
2013-07-06 14:21:00,89.1,66.2,29.85,SSW,202,4.3,4.3,47,0.00,CLR,,0.00,100.0,WeatherDisplay:10.37,2013-07-06 19:21:00,
2013-07-06 14:26:00,88.7,65.3,29.85,SE,135,5.8,5.8,46,0.00,CLR,,0.00,0.0,WeatherDisplay:10.37,2013-07-06 19:26:00,
2013-07-06 14:32:00,88.7,65.9,29.85,SSE,158,2.3,2.3,47,0.00,CLR,,0.00,100.0,WeatherDisplay:10.37,2013-07-06 19:32:00,
2013-07-06 14:39:00,89.1,66.8,29.85,SE,135,5.4,5.4,48,0.00,CLR,,0.00,300.0,WeatherDisplay:10.37,2013-07-06 19:39:00,
2013-07-06 14:45:00,89.4,67.1,29.85,South,180,4.6,4.6,48,0.00,CLR,,0.00,200.0,WeatherDisplay:10.37,2013-07-06 19:45:00,
2013-07-06 14:51:00,90.0,67.6,29.85,SSE,158,5.8,5.8,48,0.00,CLR,,0.00,400.0,WeatherDisplay:10.37,2013-07-06 19:51:00,
2013-07-06 14:56:00,90.7,67.7,29.85,South,180,7.8,7.8,47,0.00,CLR,,0.00,300.0,WeatherDisplay:10.37,2013-07-06 19:56:00,
2013-07-06 15:02:00,90.5,67.5,29.82,SSW,202,8.1,8.1,47,0.00,CLR,,0.00,200.0,WeatherDisplay:10.37,2013-07-06 20:02:00,
2013-07-06 15:07:00,90.3,66.7,29.82,South,180,3.5,3.5,46,0.00,CLR,,0.00,100.0,WeatherDisplay:10.37,2013-07-06 20:07:00,
2013-07-06 15:12:00,90.3,67.4,29.82,SSE,158,3.5,3.5,47,0.00,CLR,,0.00,400.0,WeatherDisplay:10.37,2013-07-06 20:12:00,
2013-07-06 15:17:00,90.5,66.9,29.82,SSW,202,6.2,6.2,46,0.00,CLR,,0.00,200.0,WeatherDisplay:10.37,2013-07-06 20:17:00,
2013-07-06 15:22:00,90.3,66.7,29.82,SSE,158,4.6,4.6,46,0.00,CLR,,0.00,200.0,WeatherDisplay:10.37,2013-07-06 20:22:00,
2013-07-06 15:28:00,90.1,66.6,29.85,South,180,5.8,5.8,46,0.00,CLR,,0.00,100.0,WeatherDisplay:10.37,2013-07-06 20:28:00,
2013-07-06 15:33:00,90.0,66.4,29.85,South,180,3.5,3.5,46,0.00,CLR,,0.00,200.0,WeatherDisplay:10.37,2013-07-06 20:33:00,
2013-07-06 15:38:00,90.0,67.0,29.85,South,180,1.6,2.0,47,0.00,CLR,,0.00,200.0,WeatherDisplay:10.37,2013-07-06 20:38:00,
2013-07-06 15:44:00,90.1,66.6,29.85,South,180,3.5,3.5,46,0.00,CLR,,0.00,100.0,WeatherDisplay:10.37,2013-07-06 20:44:00,
2013-07-06 15:50:00,90.0,65.8,29.85,South,180,8.1,8.1,45,0.00,CLR,,0.00,200.0,WeatherDisplay:10.37,2013-07-06 20:50:00,
2013-07-06 15:55:00,90.0,66.4,29.85,SW,225,4.3,4.3,46,0.00,CLR,,0.00,200.0,WeatherDisplay:10.37,2013-07-06 20:55:00,
2013-07-06 16:00:00,90.1,66.6,29.85,SSW,202,3.6,3.6,46,0.00,CLR,,0.00,300.0,WeatherDisplay:10.37,2013-07-06 21:00:00,
2013-07-06 16:06:00,90.3,66.1,29.85,SSW,202,5.8,5.8,45,0.00,CLR,,0.00,200.0,WeatherDisplay:10.37,2013-07-06 21:06:00,
2013-07-06 16:11:00,90.3,66.1,29.85,SE,135,4.6,4.6,45,0.00,CLR,,0.00,0.0,WeatherDisplay:10.37,2013-07-06 21:11:00,
2013-07-06 16:16:00,90.5,66.3,29.85,SSW,202,8.1,8.1,45,0.00,CLR,,0.00,200.0,WeatherDisplay:10.37,2013-07-06 21:16:00,
2013-07-06 16:21:00,90.1,65.9,29.85,South,180,3.5,3.5,45,0.00,CLR,,0.00,100.0,WeatherDisplay:10.37,2013-07-06 21:21:00,
2013-07-06 16:28:00,90.1,65.3,29.85,SSW,202,4.6,4.6,44,0.00,CLR,,0.00,100.0,WeatherDisplay:10.37,2013-07-06 21:28:00,
2013-07-06 16:33:00,90.0,65.8,29.85,South,180,4.6,4.6,45,0.00,CLR,,0.00,100.0,WeatherDisplay:10.37,2013-07-06 21:33:00,
2013-07-06 16:38:00,90.0,65.8,29.85,SSE,158,3.1,3.1,45,0.00,CLR,,0.00,0.0,WeatherDisplay:10.37,2013-07-06 21:38:00,
2013-07-06 16:43:00,89.6,66.1,29.82,SE,135,5.8,5.8,46,0.00,CLR,,0.00,0.0,WeatherDisplay:10.37,2013-07-06 21:43:00,
2013-07-06 16:48:00,89.4,65.9,29.82,SSW,202,6.9,6.9,46,0.00,CLR,,0.00,0.0,WeatherDisplay:10.37,2013-07-06 21:48:00,
2013-07-06 16:54:00,89.2,65.8,29.82,SW,225,6.9,6.9,46,0.00,CLR,,0.00,0.0,WeatherDisplay:10.37,2013-07-06 21:54:00,
2013-07-06 16:59:00,89.1,66.2,29.82,SSW,202,5.8,5.8,47,0.00,CLR,,0.00,0.0,WeatherDisplay:10.37,2013-07-06 21:59:00,
2013-07-06 17:04:00,88.9,66.0,29.82,SE,135,4.6,4.6,47,0.00,CLR,,0.00,0.0,WeatherDisplay:10.37,2013-07-06 22:04:00,
2013-07-06 17:09:00,88.9,66.0,29.82,SW,225,4.6,4.6,47,0.00,CLR,,0.00,0.0,WeatherDisplay:10.37,2013-07-06 22:09:00,
2013-07-06 17:14:00,88.7,65.9,29.82,SSW,202,4.6,4.6,47,0.00,CLR,,0.00,0.0,WeatherDisplay:10.37,2013-07-06 22:14:00,
2013-07-06 17:20:00,88.7,65.9,29.82,SSW,202,5.8,5.8,47,0.00,CLR,,0.00,0.0,WeatherDisplay:10.37,2013-07-06 22:20:00,
2013-07-06 17:25:00,88.2,65.4,29.82,SSW,202,5.8,5.8,47,0.00,CLR,,0.00,0.0,WeatherDisplay:10.37,2013-07-06 22:25:00,
2013-07-06 17:30:00,87.6,65.5,29.82,South,180,4.6,4.6,48,0.00,CLR,,0.00,0.0,WeatherDisplay:10.37,2013-07-06 22:30:00,
2013-07-06 17:35:00,87.6,66.1,29.82,WSW,248,9.2,9.2,49,0.00,CLR,,0.00,0.0,WeatherDisplay:10.37,2013-07-06 22:35:00,
2013-07-06 17:40:00,87.8,66.3,29.82,SW,225,5.8,5.8,49,0.00,CLR,,0.00,0.0,WeatherDisplay:10.37,2013-07-06 22:40:00,
2013-07-06 17:45:00,87.8,66.3,29.82,SSW,202,8.1,8.1,49,0.00,CLR,,0.00,0.0,WeatherDisplay:10.37,2013-07-06 22:45:00,
2013-07-06 17:51:00,88.0,66.4,29.82,SW,225,3.3,3.3,49,0.00,CLR,,0.00,0.0,WeatherDisplay:10.37,2013-07-06 22:51:00,
2013-07-06 17:56:00,87.8,66.3,29.82,SSW,202,2.4,2.6,49,0.00,CLR,,0.00,0.0,WeatherDisplay:10.37,2013-07-06 22:56:00,
2013-07-06 18:02:00,87.4,66.5,29.82,South,180,5.8,5.8,50,0.00,CLR,,0.00,0.0,WeatherDisplay:10.37,2013-07-06 23:02:00,
2013-07-06 18:07:00,87.1,66.2,29.82,South,180,2.6,2.6,50,0.00,CLR,,0.00,0.0,WeatherDisplay:10.37,2013-07-06 23:07:00,
2013-07-06 18:13:00,86.7,67.0,29.82,SSW,202,5.8,5.8,52,0.00,CLR,,0.00,0.0,WeatherDisplay:10.37,2013-07-06 23:13:00,
2013-07-06 18:18:00,86.2,66.5,29.82,SSW,202,2.3,2.3,52,0.00,CLR,,0.00,0.0,WeatherDisplay:10.37,2013-07-06 23:18:00,
2013-07-06 18:23:00,86.0,66.3,29.82,SSE,158,2.3,2.3,52,0.00,CLR,,0.00,0.0,WeatherDisplay:10.37,2013-07-06 23:23:00,
2013-07-06 18:29:00,85.6,66.5,29.82,SW,225,3.5,3.5,53,0.00,CLR,,0.00,0.0,WeatherDisplay:10.37,2013-07-06 23:29:00,
2013-07-06 18:34:00,85.5,66.9,29.82,SSW,202,3.6,3.6,54,0.00,CLR,,0.00,0.0,WeatherDisplay:10.37,2013-07-06 23:34:00,
2013-07-06 18:39:00,85.3,67.3,29.82,SW,225,4.0,4.0,55,0.00,CLR,,0.00,0.0,WeatherDisplay:10.37,2013-07-06 23:39:00,
2013-07-06 18:45:00,85.3,67.3,29.82,South,180,4.6,4.6,55,0.00,CLR,,0.00,0.0,WeatherDisplay:10.37,2013-07-06 23:45:00,
2013-07-06 18:50:00,85.3,67.8,29.82,SSW,202,2.4,2.4,56,0.00,CLR,,0.00,0.0,WeatherDisplay:10.37,2013-07-06 23:50:00,
2013-07-06 18:55:00,85.1,68.2,29.82,SSW,202,1.4,1.4,57,0.00,CLR,,0.00,0.0,WeatherDisplay:10.37,2013-07-06 23:55:00,
2013-07-06 19:01:00,85.1,68.2,29.82,South,180,3.5,3.5,57,0.00,CLR,,0.00,0.0,WeatherDisplay:10.37,2013-07-07 00:01:00,
2013-07-06 19:06:00,84.9,68.5,29.82,South,180,2.3,2.3,58,0.00,CLR,,0.00,0.0,WeatherDisplay:10.37,2013-07-07 00:06:00,
2013-07-06 19:12:00,84.9,69.0,29.82,SSE,158,2.3,2.3,59,0.00,CLR,,0.00,0.0,WeatherDisplay:10.37,2013-07-07 00:12:00,
2013-07-06 19:17:00,84.7,68.8,29.82,South,180,1.4,1.4,59,0.00,CLR,,0.00,0.0,WeatherDisplay:10.37,2013-07-07 00:17:00,
2013-07-06 19:22:00,84.4,69.0,29.82,SSE,158,2.3,2.3,60,0.00,CLR,,0.00,0.0,WeatherDisplay:10.37,2013-07-07 00:22:00,
2013-07-06 19:27:00,84.2,68.8,29.85,SSE,158,1.1,1.1,60,0.00,CLR,,0.00,0.0,WeatherDisplay:10.37,2013-07-07 00:27:00,
2013-07-06 19:33:00,84.0,69.1,29.85,SSE,158,2.3,2.3,61,0.00,CLR,,0.00,0.0,WeatherDisplay:10.37,2013-07-07 00:33:00,
2013-07-06 19:38:00,83.7,69.3,29.85,SSE,158,1.1,0.0,62,0.00,CLR,,0.00,0.0,WeatherDisplay:10.37,2013-07-07 00:38:00,
2013-07-06 19:43:00,83.5,69.1,29.85,SSE,158,0.0,0.0,62,0.00,CLR,,0.00,0.0,WeatherDisplay:10.37,2013-07-07 00:43:00,
2013-07-06 19:48:00,83.1,69.2,29.85,SSE,158,2.3,2.3,63,0.00,CLR,,0.00,0.0,WeatherDisplay:10.37,2013-07-07 00:48:00,
2013-07-06 19:53:00,82.8,68.9,29.85,SSE,158,0.0,0.0,63,0.00,CLR,,0.00,0.0,WeatherDisplay:10.37,2013-07-07 00:53:00,
2013-07-06 19:58:00,82.4,69.0,29.85,SSE,158,1.1,1.1,64,0.00,CLR,,0.00,0.0,WeatherDisplay:10.37,2013-07-07 00:58:00,
2013-07-06 20:03:00,82.2,69.3,29.85,SSE,158,1.1,1.1,65,0.00,CLR,,0.00,0.0,WeatherDisplay:10.37,2013-07-07 01:03:00,
2013-07-06 20:09:00,81.9,68.9,29.85,SSE,158,1.1,0.0,65,0.00,CLR,,0.00,0.0,WeatherDisplay:10.37,2013-07-07 01:09:00,
2013-07-06 20:14:00,81.7,69.2,29.85,SSE,158,0.0,0.0,66,0.00,CLR,,0.00,0.0,WeatherDisplay:10.37,2013-07-07 01:14:00,
2013-07-06 20:19:00,81.3,68.9,29.85,SSE,158,0.0,0.0,66,0.00,CLR,,0.00,0.0,WeatherDisplay:10.37,2013-07-07 01:19:00,
2013-07-06 20:25:00,80.8,68.8,29.85,SSE,158,1.1,1.1,67,0.00,CLR,,0.00,0.0,WeatherDisplay:10.37,2013-07-07 01:25:00,
2013-07-06 20:30:00,80.4,68.5,29.85,SSE,158,1.1,0.0,67,0.00,CLR,,0.00,0.0,WeatherDisplay:10.37,2013-07-07 01:30:00,
2013-07-06 20:35:00,80.1,68.5,29.85,SSE,158,1.1,0.0,68,0.00,CLR,,0.00,0.0,WeatherDisplay:10.37,2013-07-07 01:35:00,
2013-07-06 20:41:00,79.9,68.4,29.85,SSE,158,1.1,0.0,68,0.00,CLR,,0.00,0.0,WeatherDisplay:10.37,2013-07-07 01:41:00,
2013-07-06 20:47:00,79.5,68.5,29.85,SSE,158,1.1,1.1,69,0.00,CLR,,0.00,0.0,WeatherDisplay:10.37,2013-07-07 01:47:00,
2013-07-06 20:53:00,79.3,68.3,29.85,SSE,158,1.1,0.0,69,0.00,CLR,,0.00,0.0,WeatherDisplay:10.37,2013-07-07 01:53:00,
2013-07-06 20:58:00,79.2,68.1,29.85,SSE,158,1.1,0.0,69,0.00,CLR,,0.00,0.0,WeatherDisplay:10.37,2013-07-07 01:58:00,
2013-07-06 21:03:00,79.0,67.9,29.85,SSE,158,2.3,2.3,69,0.00,CLR,,0.00,0.0,WeatherDisplay:10.37,2013-07-07 02:03:00,
2013-07-06 21:08:00,79.0,67.9,29.85,SSE,158,1.1,1.1,69,0.00,CLR,,0.00,0.0,WeatherDisplay:10.37,2013-07-07 02:08:00,
2013-07-06 21:13:00,78.8,67.8,29.85,SSE,158,1.1,0.0,69,0.00,CLR,,0.00,0.0,WeatherDisplay:10.37,2013-07-07 02:13:00,
2013-07-06 21:19:00,78.8,67.8,29.85,SSE,158,2.0,2.0,69,0.00,CLR,,0.00,0.0,WeatherDisplay:10.37,2013-07-07 02:19:00,
2013-07-06 21:24:00,78.8,67.8,29.85,SSW,202,1.1,1.1,69,0.00,CLR,,0.00,0.0,WeatherDisplay:10.37,2013-07-07 02:24:00,
2013-07-06 21:30:00,78.8,67.8,29.85,SW,225,2.3,2.3,69,0.00,CLR,,0.00,0.0,WeatherDisplay:10.37,2013-07-07 02:30:00,
2013-07-06 21:36:00,78.8,67.8,29.85,SSE,158,3.5,3.5,69,0.00,CLR,,0.00,0.0,WeatherDisplay:10.37,2013-07-07 02:36:00,
2013-07-06 21:42:00,78.8,67.8,29.85,SE,135,2.3,2.3,69,0.00,CLR,,0.00,0.0,WeatherDisplay:10.37,2013-07-07 02:42:00,
2013-07-06 21:47:00,78.8,67.8,29.85,SSW,202,5.8,5.8,69,0.00,CLR,,0.00,0.0,WeatherDisplay:10.37,2013-07-07 02:47:00,
2013-07-06 21:52:00,78.6,67.6,29.85,SSE,158,2.3,2.3,69,0.00,CLR,,0.00,0.0,WeatherDisplay:10.37,2013-07-07 02:52:00,
2013-07-06 21:57:00,78.6,67.6,29.88,SSE,158,2.3,2.3,69,0.00,CLR,,0.00,0.0,WeatherDisplay:10.37,2013-07-07 02:57:00,
2013-07-06 22:02:00,78.6,67.6,29.88,SSE,158,2.4,2.4,69,0.00,CLR,,0.00,0.0,WeatherDisplay:10.37,2013-07-07 03:02:00,
2013-07-06 22:08:00,78.4,67.4,29.88,SSE,158,2.3,2.3,69,0.00,CLR,,0.00,0.0,WeatherDisplay:10.37,2013-07-07 03:08:00,
2013-07-06 22:13:00,78.4,67.4,29.85,SSE,158,3.5,3.5,69,0.00,CLR,,0.00,0.0,WeatherDisplay:10.37,2013-07-07 03:13:00,
2013-07-06 22:18:00,78.4,67.4,29.85,SSW,202,2.4,2.4,69,0.00,CLR,,0.00,0.0,WeatherDisplay:10.37,2013-07-07 03:18:00,
2013-07-06 22:24:00,78.3,67.3,29.85,South,180,2.3,2.3,69,0.00,CLR,,0.00,0.0,WeatherDisplay:10.37,2013-07-07 03:24:00,
2013-07-06 22:29:00,78.3,67.3,29.85,SSE,158,2.3,2.3,69,0.00,CLR,,0.00,0.0,WeatherDisplay:10.37,2013-07-07 03:29:00,
2013-07-06 22:34:00,78.1,67.1,29.85,SSE,158,2.4,2.4,69,0.00,CLR,,0.00,0.0,WeatherDisplay:10.37,2013-07-07 03:34:00,
2013-07-06 22:39:00,78.1,67.1,29.85,SSW,202,2.3,2.3,69,0.00,CLR,,0.00,0.0,WeatherDisplay:10.37,2013-07-07 03:39:00,
2013-07-06 22:44:00,77.9,66.9,29.85,SSW,202,2.3,2.3,69,0.00,CLR,,0.00,0.0,WeatherDisplay:10.37,2013-07-07 03:44:00,
2013-07-06 22:50:00,77.7,67.2,29.85,SE,135,2.3,2.3,70,0.00,CLR,,0.00,0.0,WeatherDisplay:10.37,2013-07-07 03:50:00,
2013-07-06 22:55:00,77.7,67.2,29.85,South,180,2.3,2.3,70,0.00,CLR,,0.00,0.0,WeatherDisplay:10.37,2013-07-07 03:55:00,
2013-07-06 23:01:00,77.5,67.0,29.85,SE,135,1.1,0.0,70,0.00,CLR,,0.00,0.0,WeatherDisplay:10.37,2013-07-07 04:01:00,
2013-07-06 23:02:00,77.5,67.0,29.85,SE,135,2.3,2.3,70,0.00,CLR,,0.00,0.0,WeatherDisplay:10.37,2013-07-07 04:02:00,
2013-07-06 23:03:00,77.5,67.4,29.85,SE,135,1.4,1.4,71,0.00,CLR,,0.00,0.0,WeatherDisplay:10.37,2013-07-07 04:03:00,
2013-07-06 23:04:00,77.5,67.0,29.85,SSE,158,2.3,2.3,70,0.00,CLR,,0.00,0.0,WeatherDisplay:10.37,2013-07-07 04:04:00,
2013-07-06 23:09:00,77.4,67.2,29.85,SSE,158,2.3,2.3,71,0.00,CLR,,0.00,0.0,WeatherDisplay:10.37,2013-07-07 04:09:00,
2013-07-06 23:14:00,77.2,67.0,29.85,South,180,2.3,2.3,71,0.00,CLR,,0.00,0.0,WeatherDisplay:10.37,2013-07-07 04:14:00,
2013-07-06 23:19:00,77.0,67.3,29.85,SSE,158,2.3,2.3,72,0.00,CLR,,0.00,0.0,WeatherDisplay:10.37,2013-07-07 04:19:00,
2013-07-06 23:24:00,76.8,67.1,29.85,South,180,2.3,2.3,72,0.00,CLR,,0.00,0.0,WeatherDisplay:10.37,2013-07-07 04:24:00,
2013-07-06 23:30:00,76.8,67.1,29.85,South,180,3.5,3.5,72,0.00,CLR,,0.00,0.0,WeatherDisplay:10.37,2013-07-07 04:30:00,
2013-07-06 23:35:00,76.6,67.3,29.85,SSE,158,3.5,3.5,73,0.00,CLR,,0.00,0.0,WeatherDisplay:10.37,2013-07-07 04:35:00,
2013-07-06 23:40:00,76.5,67.2,29.85,South,180,1.1,1.4,73,0.00,CLR,,0.00,0.0,WeatherDisplay:10.37,2013-07-07 04:40:00,
2013-07-06 23:45:00,76.3,67.0,29.82,SSE,158,2.3,2.3,73,0.00,CLR,,0.00,0.0,WeatherDisplay:10.37,2013-07-07 04:45:00,
2013-07-06 23:51:00,76.3,67.0,29.82,South,180,2.4,2.4,73,0.00,CLR,,0.00,0.0,WeatherDisplay:10.37,2013-07-07 04:51:00,
2013-07-06 23:56:00,76.3,67.0,29.82,South,180,2.3,2.3,73,0.00,CLR,,0.00,0.0,WeatherDisplay:10.37,2013-07-07 04:56:00,